sensor_id;sensor_type;location;lat;lon;timestamp;pressure;altitude;pressure_sealevel;temperature;humidity
63582;BME280;49727;51.078;17.066;2023-01-20T00:08:32;99586.03;;;-2.09;66.00
63582;BME280;49727;51.078;17.066;2023-01-20T00:23:33;99584.19;;;-2.20;66.17
63582;BME280;49727;51.078;17.066;2023-01-20T00:38:33;99588.13;;;-2.27;66.92
63582;BME280;49727;51.078;17.066;2023-01-20T00:53:34;99605.84;;;-2.32;67.04
63582;BME280;49727;51.078;17.066;2023-01-20T01:08:35;99615.03;;;-2.40;67.30
63582;BME280;49727;51.078;17.066;2023-01-20T01:23:36;99611.88;;;-2.45;67.48
63582;BME280;49727;51.078;17.066;2023-01-20T01:38:36;99608.88;;;-2.51;68.41
63582;BME280;49727;51.078;17.066;2023-01-20T01:53:41;99615.41;;;-2.59;68.44
63582;BME280;49727;51.078;17.066;2023-01-20T02:08:43;99646.25;;;-2.65;68.67
63582;BME280;49727;51.078;17.066;2023-01-20T02:39:17;99657.38;;;-2.49;68.94
63582;BME280;49727;51.078;17.066;2023-01-20T02:54:21;99665.75;;;-2.44;69.05
63582;BME280;49727;51.078;17.066;2023-01-20T03:09:29;99666.44;;;-2.55;69.76
63582;BME280;49727;51.078;17.066;2023-01-20T03:24:31;99690.66;;;-2.80;69.49
63582;BME280;49727;51.078;17.066;2023-01-20T03:39:33;99705.75;;;-2.99;69.94
63582;BME280;49727;51.078;17.066;2023-01-20T03:54:50;99718.91;;;-3.30;70.01
63582;BME280;49727;51.078;17.066;2023-01-20T04:09:56;99728.84;;;-3.51;71.25
63582;BME280;49727;51.078;17.066;2023-01-20T04:25:11;99749.38;;;-3.75;71.18
63582;BME280;49727;51.078;17.066;2023-01-20T04:40:12;99773.94;;;-3.95;71.82
63582;BME280;49727;51.078;17.066;2023-01-20T04:55:13;99782.03;;;-4.16;72.48
63582;BME280;49727;51.078;17.066;2023-01-20T05:10:13;99818.31;;;-4.13;72.58
63582;BME280;49727;51.078;17.066;2023-01-20T05:25:14;99828.75;;;-3.82;73.56
63582;BME280;49727;51.078;17.066;2023-01-20T05:40:14;99837.13;;;-3.47;73.51
63582;BME280;49727;51.078;17.066;2023-01-20T05:55:15;99838.22;;;-2.92;74.16
63582;BME280;49727;51.078;17.066;2023-01-20T06:10:16;99828.47;;;-2.88;72.26
63582;BME280;49727;51.078;17.066;2023-01-20T06:25:16;99807.56;;;-3.46;72.63
63582;BME280;49727;51.078;17.066;2023-01-20T06:40:17;99815.66;;;-3.66;72.90
63582;BME280;49727;51.078;17.066;2023-01-20T06:55:17;99854.31;;;-3.75;73.42
63582;BME280;49727;51.078;17.066;2023-01-20T07:10:18;99873.63;;;-3.63;74.01
63582;BME280;49727;51.078;17.066;2023-01-20T07:25:18;99911.03;;;-3.33;74.10
63582;BME280;49727;51.078;17.066;2023-01-20T07:40:19;99940.66;;;-2.46;75.27
63582;BME280;49727;51.078;17.066;2023-01-20T07:55:19;99974.69;;;-1.08;73.89
63582;BME280;49727;51.078;17.066;2023-01-20T08:10:20;99964.09;;;0.46;72.94
63582;BME280;49727;51.078;17.066;2023-01-20T08:25:20;99975.34;;;1.66;71.71
63582;BME280;49727;51.078;17.066;2023-01-20T08:40:21;100014.25;;;3.17;68.66
63582;BME280;49727;51.078;17.066;2023-01-20T08:55:21;100005.03;;;10.48;61.22
63582;BME280;49727;51.078;17.066;2023-01-20T09:10:21;100022.56;;;9.21;56.44
63582;BME280;49727;51.078;17.066;2023-01-20T09:25:22;100037.28;;;5.97;57.63
63582;BME280;49727;51.078;17.066;2023-01-20T09:40:34;100037.88;;;9.19;53.83
63582;BME280;49727;51.078;17.066;2023-01-20T09:56:03;100028.13;;;17.20;43.95
63582;BME280;49727;51.078;17.066;2023-01-20T10:11:08;100019.47;;;18.12;39.37
63582;BME280;49727;51.078;17.066;2023-01-20T10:26:35;100003.13;;;18.07;33.93
63582;BME280;49727;51.078;17.066;2023-01-20T10:41:38;100012.53;;;15.66;33.30
63582;BME280;49727;51.078;17.066;2023-01-20T10:56:44;100026.16;;;12.04;36.33
63582;BME280;49727;51.078;17.066;2023-01-20T11:11:52;100045.47;;;9.88;39.52
63582;BME280;49727;51.078;17.066;2023-01-20T11:27:02;100058.03;;;8.01;42.46
63582;BME280;49727;51.078;17.066;2023-01-20T11:42:17;100059.88;;;6.29;45.11
63582;BME280;49727;51.078;17.066;2023-01-20T11:57:19;100080.88;;;5.83;47.22
63582;BME280;49727;51.078;17.066;2023-01-20T12:12:27;100090.25;;;4.27;49.34
63582;BME280;49727;51.078;17.066;2023-01-20T12:27:29;100089.19;;;3.13;51.54
63582;BME280;49727;51.078;17.066;2023-01-20T12:57:59;100081.63;;;3.19;54.43
63582;BME280;49727;51.078;17.066;2023-01-20T13:13:11;100079.44;;;3.57;54.86
63582;BME280;49727;51.078;17.066;2023-01-20T13:28:18;100098.13;;;3.54;55.07
63582;BME280;49727;51.078;17.066;2023-01-20T13:58:30;100126.72;;;3.26;55.20
63582;BME280;49727;51.078;17.066;2023-01-20T14:13:31;100153.59;;;2.97;56.03
63582;BME280;49727;51.078;17.066;2023-01-20T14:28:32;100157.69;;;2.67;57.04
63582;BME280;49727;51.078;17.066;2023-01-20T14:43:34;100165.44;;;2.35;57.71
63582;BME280;49727;51.078;17.066;2023-01-20T14:58:47;100181.25;;;1.99;58.23
63582;BME280;49727;51.078;17.066;2023-01-20T15:28:58;100200.03;;;1.46;59.85
63582;BME280;49727;51.078;17.066;2023-01-20T15:43:58;100235.59;;;1.26;60.47
63582;BME280;49727;51.078;17.066;2023-01-20T15:58:58;100245.25;;;1.13;61.27
63582;BME280;49727;51.078;17.066;2023-01-20T16:13:59;100234.59;;;0.90;61.85
63582;BME280;49727;51.078;17.066;2023-01-20T16:28:59;100258.00;;;0.67;62.68
63582;BME280;49727;51.078;17.066;2023-01-20T16:44:00;100286.53;;;0.59;63.56
63582;BME280;49727;51.078;17.066;2023-01-20T16:59:01;100299.72;;;0.45;64.01
63582;BME280;49727;51.078;17.066;2023-01-20T17:14:03;100326.00;;;0.30;64.53
63582;BME280;49727;51.078;17.066;2023-01-20T17:29:04;100351.13;;;0.20;65.11
63582;BME280;49727;51.078;17.066;2023-01-20T17:44:04;100376.16;;;0.39;65.59
63582;BME280;49727;51.078;17.066;2023-01-20T17:59:05;100373.09;;;0.45;66.02
63582;BME280;49727;51.078;17.066;2023-01-20T18:14:06;100373.66;;;0.23;66.59
63582;BME280;49727;51.078;17.066;2023-01-20T18:29:09;100375.34;;;-0.04;66.95
63582;BME280;49727;51.078;17.066;2023-01-20T18:44:11;100374.34;;;0.12;67.90
63582;BME280;49727;51.078;17.066;2023-01-20T18:59:11;100390.50;;;0.33;67.92
63582;BME280;49727;51.078;17.066;2023-01-20T19:14:13;100394.16;;;0.30;68.35
63582;BME280;49727;51.078;17.066;2023-01-20T19:29:14;100397.91;;;0.26;68.09
63582;BME280;49727;51.078;17.066;2023-01-20T19:44:16;100416.06;;;0.15;68.27
63582;BME280;49727;51.078;17.066;2023-01-20T19:59:17;100423.56;;;0.07;68.74
63582;BME280;49727;51.078;17.066;2023-01-20T20:14:20;100411.03;;;0.12;68.99
63582;BME280;49727;51.078;17.066;2023-01-20T20:29:20;100406.00;;;0.09;68.82
63582;BME280;49727;51.078;17.066;2023-01-20T20:44:21;100392.78;;;0.10;69.23
63582;BME280;49727;51.078;17.066;2023-01-20T20:59:21;100383.44;;;0.06;69.38
63582;BME280;49727;51.078;17.066;2023-01-20T21:14:23;100392.00;;;-0.05;69.61
63582;BME280;49727;51.078;17.066;2023-01-20T21:29:26;100413.50;;;-0.14;69.59
63582;BME280;49727;51.078;17.066;2023-01-20T21:44:26;100426.25;;;-0.37;69.71
63582;BME280;49727;51.078;17.066;2023-01-20T21:59:31;100431.31;;;-0.62;70.04
63582;BME280;49727;51.078;17.066;2023-01-20T22:14:32;100418.38;;;-0.80;69.93
63582;BME280;49727;51.078;17.066;2023-01-20T22:29:32;100397.91;;;-1.02;70.20
63582;BME280;49727;51.078;17.066;2023-01-20T22:44:33;100392.72;;;-1.18;70.80
63582;BME280;49727;51.078;17.066;2023-01-20T22:59:33;100417.75;;;-1.14;71.16
63582;BME280;49727;51.078;17.066;2023-01-20T23:14:35;100410.69;;;-1.12;71.52
63582;BME280;49727;51.078;17.066;2023-01-20T23:29:53;100415.72;;;-1.09;71.54
63582;BME280;49727;51.078;17.066;2023-01-20T23:44:54;100407.03;;;-1.09;71.59
63582;BME280;49727;51.078;17.066;2023-01-20T23:59:55;100411.06;;;-1.04;71.93
